Hlavní strana
METAR-TAF:

METAR-TAF

Letiště :

Letiště Altenburg-Nobitz

Altenburg, Německo

zeměpisná šířka: 50-58N, zeměpisná délka: 012-30E, výška: 195 m

Aktuální stav počasí

Zpráva byla vytvořena před 41 minutami, v 10:20 UTC
Západní vítr 10 kt, proměnlivý mezi západojihozápadním a severozápadním
Teplota 25°C
Vlhkost vzduchu 50%
Tlak 1018 hPa
Viditelnost 10 km a více
Oblačno až skoro zataženo ve výšce 4400 ft

METAR: EDAC 201020Z 27010KT 240V310 9999 BKN044 25/14 Q1018

Čas: 13:01 (11:01 UTC)

Předpověď počasí

Zpráva byla vytvořena před 3 hodinami a 1 minutami, v 08:00 UTC
Předpověď platná od 20 v 09 UTC do 20 v 18 UTC
Západojihozápadní vítr 5 kt
Viditelnost 10 km a více
Žádná oblačnost pod 1500 m, nevyskytují se cumulonimby.
Změna
od 20 v 10 UTC do 20 v 12 UTC
Severozápadní vítr 9 kt

TAF: EDAC 200800Z 2009/2018 25005KT CAVOK BECMG 2010/2012 31009KT

Stav a předpovědi počasí z více než 4 000 letišť (zprávy METAR a TAF).

Červené a žluté tečky na mapě představují dostupné meteorologické stanice.

Když kurzor umístíte na tečku, zobrazí se název stanice.

Pak kliknutím zobrazíte stav a předpověď počasí.

Chcete-li změnit mapu, kliknutím na zelené tlačítko se znaménkem +mapu přiblížíte, kliknutím na zelené tlačítko se znaménkem – mapu oddálíte a kliknutím na zelené šipky přejdete na sousední mapy.


METAR-TAF: